sensor_id;sensor_type;location;lat;lon;timestamp;pressure;altitude;pressure_sealevel;temperature;humidity
46886;BME280;32622;48.202;11.326;2023-01-30T00:00:06;1027.47;;;-1.79;25.60
46886;BME280;32622;48.202;11.326;2023-01-30T00:02:09;1027.45;;;-1.81;25.60
46886;BME280;32622;48.202;11.326;2023-01-30T00:04:13;1027.45;;;-1.88;25.58
46886;BME280;32622;48.202;11.326;2023-01-30T00:06:16;1027.72;;;-2.77;26.21
46886;BME280;32622;48.202;11.326;2023-01-30T00:08:20;1027.55;;;-2.19;25.73
46886;BME280;32622;48.202;11.326;2023-01-30T00:10:23;1027.43;;;-1.73;25.66
46886;BME280;32622;48.202;11.326;2023-01-30T00:12:26;1027.49;;;-2.23;25.54
46886;BME280;32622;48.202;11.326;2023-01-30T00:14:29;1027.34;;;-1.73;25.44
46886;BME280;32622;48.202;11.326;2023-01-30T00:16:33;1027.26;;;-1.50;25.26
46886;BME280;32622;48.202;11.326;2023-01-30T00:18:37;1027.25;;;-1.71;25.30
46886;BME280;32622;48.202;11.326;2023-01-30T00:20:42;1027.36;;;-2.10;25.43
46886;BME280;32622;48.202;11.326;2023-01-30T00:22:46;1027.48;;;-2.54;26.24
46886;BME280;32622;48.202;11.326;2023-01-30T00:25:14;1027.36;;;-2.07;26.52
46886;BME280;32622;48.202;11.326;2023-01-30T00:27:17;1027.31;;;-1.89;26.10
46886;BME280;32622;48.202;11.326;2023-01-30T00:29:20;1027.19;;;-1.63;25.77
46886;BME280;32622;48.202;11.326;2023-01-30T00:31:23;1027.27;;;-2.17;25.65
46886;BME280;32622;48.202;11.326;2023-01-30T00:33:27;1027.32;;;-2.32;25.83
46886;BME280;32622;48.202;11.326;2023-01-30T00:35:30;1027.28;;;-2.35;26.29
46886;BME280;32622;48.202;11.326;2023-01-30T00:37:34;1027.17;;;-2.39;25.69
46886;BME280;32622;48.202;11.326;2023-01-30T00:39:37;1027.09;;;-2.31;25.76
46886;BME280;32622;48.202;11.326;2023-01-30T00:41:40;1026.95;;;-1.94;25.50
46886;BME280;32622;48.202;11.326;2023-01-30T00:43:45;1026.91;;;-1.95;25.51
46886;BME280;32622;48.202;11.326;2023-01-30T00:45:49;1026.91;;;-2.18;25.61
46886;BME280;32622;48.202;11.326;2023-01-30T00:47:54;1026.73;;;-1.75;25.34
46886;BME280;32622;48.202;11.326;2023-01-30T00:49:57;1026.74;;;-1.84;25.36
46886;BME280;32622;48.202;11.326;2023-01-30T00:52:01;1026.66;;;-1.79;25.25
46886;BME280;32622;48.202;11.326;2023-01-30T00:54:05;1026.72;;;-2.19;25.36
46886;BME280;32622;48.202;11.326;2023-01-30T00:56:10;1026.49;;;-1.73;25.10
46886;BME280;32622;48.202;11.326;2023-01-30T00:58:14;1026.48;;;-1.77;25.28
46886;BME280;32622;48.202;11.326;2023-01-30T01:00:17;1026.69;;;-2.39;26.10
46886;BME280;32622;48.202;11.326;2023-01-30T01:02:20;1027.11;;;-4.17;27.45
46886;BME280;32622;48.202;11.326;2023-01-30T01:04:23;1026.83;;;-2.86;27.25
46886;BME280;32622;48.202;11.326;2023-01-30T01:06:26;1026.94;;;-3.39;27.61
46886;BME280;32622;48.202;11.326;2023-01-30T01:08:31;1026.92;;;-3.26;27.01
46886;BME280;32622;48.202;11.326;2023-01-30T01:10:35;1026.87;;;-3.00;26.84
46886;BME280;32622;48.202;11.326;2023-01-30T01:12:38;1026.92;;;-3.23;26.87
46886;BME280;32622;48.202;11.326;2023-01-30T01:14:41;1026.74;;;-2.47;26.79
46886;BME280;32622;48.202;11.326;2023-01-30T01:16:45;1026.98;;;-3.42;27.03
46886;BME280;32622;48.202;11.326;2023-01-30T01:18:52;1026.84;;;-2.65;26.59
46886;BME280;32622;48.202;11.326;2023-01-30T01:20:56;1027.01;;;-3.16;27.34
46886;BME280;32622;48.202;11.326;2023-01-30T01:22:59;1026.96;;;-2.89;27.36
46886;BME280;32622;48.202;11.326;2023-01-30T01:25:03;1027.00;;;-3.26;27.04
46886;BME280;32622;48.202;11.326;2023-01-30T01:27:06;1026.99;;;-3.36;27.20
46886;BME280;32622;48.202;11.326;2023-01-30T01:29:12;1026.87;;;-2.92;26.72
46886;BME280;32622;48.202;11.326;2023-01-30T01:31:16;1027.09;;;-3.80;27.22
46886;BME280;32622;48.202;11.326;2023-01-30T01:33:19;1026.95;;;-3.19;27.37
46886;BME280;32622;48.202;11.326;2023-01-30T01:35:22;1026.89;;;-3.22;26.86
46886;BME280;32622;48.202;11.326;2023-01-30T01:37:25;1026.78;;;-2.93;27.17
46886;BME280;32622;48.202;11.326;2023-01-30T01:39:29;1026.67;;;-2.68;26.76
46886;BME280;32622;48.202;11.326;2023-01-30T01:41:39;1026.78;;;-3.09;26.52
46886;BME280;32622;48.202;11.326;2023-01-30T01:44:00;1026.81;;;-3.55;27.23
46886;BME280;32622;48.202;11.326;2023-01-30T01:46:09;1026.58;;;-2.86;27.26
46886;BME280;32622;48.202;11.326;2023-01-30T01:48:23;1026.54;;;-2.87;26.76
46886;BME280;32622;48.202;11.326;2023-01-30T01:50:37;1026.55;;;-2.78;26.68
46886;BME280;32622;48.202;11.326;2023-01-30T01:52:50;1026.78;;;-3.67;27.15
46886;BME280;32622;48.202;11.326;2023-01-30T01:54:57;1026.62;;;-2.80;27.09
46886;BME280;32622;48.202;11.326;2023-01-30T01:57:03;1026.71;;;-3.22;27.30
46886;BME280;32622;48.202;11.326;2023-01-30T01:59:10;1026.73;;;-3.33;26.94
46886;BME280;32622;48.202;11.326;2023-01-30T02:01:16;1026.64;;;-2.98;26.67
46886;BME280;32622;48.202;11.326;2023-01-30T02:03:22;1026.68;;;-3.14;26.80
46886;BME280;32622;48.202;11.326;2023-01-30T02:05:31;1026.62;;;-2.73;26.70
46886;BME280;32622;48.202;11.326;2023-01-30T02:07:38;1026.68;;;-2.73;26.53
46886;BME280;32622;48.202;11.326;2023-01-30T02:09:44;1026.73;;;-2.79;26.60
46886;BME280;32622;48.202;11.326;2023-01-30T02:11:56;1026.84;;;-2.72;26.59
46886;BME280;32622;48.202;11.326;2023-01-30T02:14:03;1026.81;;;-2.27;26.24
46886;BME280;32622;48.202;11.326;2023-01-30T02:16:07;1026.94;;;-2.89;26.01
46886;BME280;32622;48.202;11.326;2023-01-30T02:18:11;1026.84;;;-2.67;26.20
46886;BME280;32622;48.202;11.326;2023-01-30T02:20:24;1026.76;;;-2.56;26.30
46886;BME280;32622;48.202;11.326;2023-01-30T02:22:42;1026.62;;;-2.10;26.01
46886;BME280;32622;48.202;11.326;2023-01-30T02:27:37;1026.72;;;-2.70;26.31
46886;BME280;32622;48.202;11.326;2023-01-30T02:31:21;1026.72;;;-2.61;26.11
46886;BME280;32622;48.202;11.326;2023-01-30T02:33:33;1026.84;;;-3.10;26.63
46886;BME280;32622;48.202;11.326;2023-01-30T02:35:44;1026.77;;;-2.80;26.40
46886;BME280;32622;48.202;11.326;2023-01-30T02:38:03;1026.52;;;-1.92;25.71
46886;BME280;32622;48.202;11.326;2023-01-30T02:40:21;1026.47;;;-1.75;25.59
46886;BME280;32622;48.202;11.326;2023-01-30T02:42:33;1026.63;;;-2.40;25.78
46886;BME280;32622;48.202;11.326;2023-01-30T02:44:48;1026.70;;;-2.41;25.98
46886;BME280;32622;48.202;11.326;2023-01-30T02:46:55;1026.75;;;-2.42;26.15
46886;BME280;32622;48.202;11.326;2023-01-30T02:49:04;1026.61;;;-1.90;25.75
46886;BME280;32622;48.202;11.326;2023-01-30T02:51:13;1026.82;;;-2.61;25.95
46886;BME280;32622;48.202;11.326;2023-01-30T02:53:19;1026.80;;;-2.26;25.95
46886;BME280;32622;48.202;11.326;2023-01-30T02:55:25;1026.69;;;-1.87;25.75
46886;BME280;32622;48.202;11.326;2023-01-30T02:57:29;1026.67;;;-1.87;25.57
46886;BME280;32622;48.202;11.326;2023-01-30T02:59:35;1026.79;;;-2.17;25.55
46886;BME280;32622;48.202;11.326;2023-01-30T03:02:18;1026.54;;;-1.54;25.31
46886;BME280;32622;48.202;11.326;2023-01-30T03:04:39;1026.84;;;-2.25;25.82
46886;BME280;32622;48.202;11.326;2023-01-30T03:07:02;1026.84;;;-2.23;25.88
46886;BME280;32622;48.202;11.326;2023-01-30T03:09:15;1026.95;;;-2.71;26.23
46886;BME280;32622;48.202;11.326;2023-01-30T03:11:25;1026.90;;;-2.57;26.10
46886;BME280;32622;48.202;11.326;2023-01-30T03:13:43;1026.76;;;-2.49;25.79
46886;BME280;32622;48.202;11.326;2023-01-30T03:15:51;1026.54;;;-2.44;25.92
46886;BME280;32622;48.202;11.326;2023-01-30T03:17:56;1026.22;;;-1.79;25.70
46886;BME280;32622;48.202;11.326;2023-01-30T03:20:00;1026.14;;;-2.01;25.57
46886;BME280;32622;48.202;11.326;2023-01-30T03:22:03;1026.14;;;-1.98;25.39
46886;BME280;32622;48.202;11.326;2023-01-30T03:24:07;1026.48;;;-2.77;26.03
46886;BME280;32622;48.202;11.326;2023-01-30T03:26:15;1026.68;;;-3.17;26.37
46886;BME280;32622;48.202;11.326;2023-01-30T03:28:20;1026.69;;;-2.77;26.68
46886;BME280;32622;48.202;11.326;2023-01-30T03:30:24;1026.60;;;-2.55;26.07
46886;BME280;32622;48.202;11.326;2023-01-30T03:32:30;1026.61;;;-2.90;26.67
46886;BME280;32622;48.202;11.326;2023-01-30T03:34:33;1026.50;;;-2.77;26.52
46886;BME280;32622;48.202;11.326;2023-01-30T03:36:37;1026.72;;;-3.62;26.95
46886;BME280;32622;48.202;11.326;2023-01-30T03:38:40;1026.62;;;-3.43;27.48
46886;BME280;32622;48.202;11.326;2023-01-30T03:40:47;1026.57;;;-3.26;27.72
46886;BME280;32622;48.202;11.326;2023-01-30T03:42:53;1026.87;;;-4.51;28.64
46886;BME280;32622;48.202;11.326;2023-01-30T03:44:57;1026.90;;;-4.69;28.54
46886;BME280;32622;48.202;11.326;2023-01-30T03:47:00;1026.72;;;-3.67;27.77
46886;BME280;32622;48.202;11.326;2023-01-30T03:49:51;1026.16;;;-1.78;27.53
46886;BME280;32622;48.202;11.326;2023-01-30T03:51:54;1026.52;;;-3.47;27.61
46886;BME280;32622;48.202;11.326;2023-01-30T03:53:58;1026.65;;;-3.95;27.75
46886;BME280;32622;48.202;11.326;2023-01-30T03:56:01;1026.43;;;-3.33;27.62
46886;BME280;32622;48.202;11.326;2023-01-30T03:58:04;1026.62;;;-4.34;28.29
46886;BME280;32622;48.202;11.326;2023-01-30T04:00:08;1026.61;;;-4.26;28.81
46886;BME280;32622;48.202;11.326;2023-01-30T04:02:12;1026.49;;;-3.50;28.12
46886;BME280;32622;48.202;11.326;2023-01-30T04:04:15;1026.76;;;-4.24;28.62
46886;BME280;32622;48.202;11.326;2023-01-30T04:06:18;1026.87;;;-4.53;29.07
46886;BME280;32622;48.202;11.326;2023-01-30T04:08:28;1027.03;;;-4.66;29.33
46886;BME280;32622;48.202;11.326;2023-01-30T04:10:31;1027.15;;;-4.65;30.09
46886;BME280;32622;48.202;11.326;2023-01-30T04:12:35;1026.96;;;-4.32;29.66
46886;BME280;32622;48.202;11.326;2023-01-30T04:14:38;1026.86;;;-4.29;29.31
46886;BME280;32622;48.202;11.326;2023-01-30T04:16:42;1026.94;;;-4.52;29.39
46886;BME280;32622;48.202;11.326;2023-01-30T04:18:45;1026.92;;;-4.59;29.65
46886;BME280;32622;48.202;11.326;2023-01-30T04:20:49;1026.70;;;-4.34;30.02
46886;BME280;32622;48.202;11.326;2023-01-30T04:22:54;1026.61;;;-3.84;29.34
46886;BME280;32622;48.202;11.326;2023-01-30T04:25:06;1026.70;;;-4.05;29.37
46886;BME280;32622;48.202;11.326;2023-01-30T04:27:20;1026.85;;;-4.21;29.59
46886;BME280;32622;48.202;11.326;2023-01-30T04:29:28;1026.74;;;-4.13;29.29
46886;BME280;32622;48.202;11.326;2023-01-30T04:31:31;1026.70;;;-4.04;29.24
46886;BME280;32622;48.202;11.326;2023-01-30T04:33:34;1026.37;;;-3.43;29.17
46886;BME280;32622;48.202;11.326;2023-01-30T04:35:37;1026.48;;;-3.65;28.83
46886;BME280;32622;48.202;11.326;2023-01-30T04:37:40;1026.59;;;-4.43;29.74
46886;BME280;32622;48.202;11.326;2023-01-30T04:39:43;1026.41;;;-4.24;29.29
46886;BME280;32622;48.202;11.326;2023-01-30T04:41:50;1026.15;;;-3.48;28.87
46886;BME280;32622;48.202;11.326;2023-01-30T04:43:53;1026.09;;;-3.97;29.20
46886;BME280;32622;48.202;11.326;2023-01-30T04:45:56;1026.18;;;-4.53;30.20
46886;BME280;32622;48.202;11.326;2023-01-30T04:48:00;1026.10;;;-4.04;29.30
46886;BME280;32622;48.202;11.326;2023-01-30T04:50:03;1025.99;;;-3.52;28.88
46886;BME280;32622;48.202;11.326;2023-01-30T04:52:06;1026.53;;;-5.17;30.58
46886;BME280;32622;48.202;11.326;2023-01-30T04:54:10;1026.15;;;-3.32;28.93
46886;BME280;32622;48.202;11.326;2023-01-30T04:56:13;1026.09;;;-3.14;28.53
46886;BME280;32622;48.202;11.326;2023-01-30T04:58:17;1026.06;;;-2.98;28.32
46886;BME280;32622;48.202;11.326;2023-01-30T05:00:20;1026.12;;;-3.47;28.72
46886;BME280;32622;48.202;11.326;2023-01-30T05:02:23;1026.08;;;-3.87;29.39
46886;BME280;32622;48.202;11.326;2023-01-30T05:04:27;1025.82;;;-3.36;28.57
46886;BME280;32622;48.202;11.326;2023-01-30T05:06:31;1025.95;;;-3.77;28.80
46886;BME280;32622;48.202;11.326;2023-01-30T05:08:35;1025.84;;;-3.36;28.51
46886;BME280;32622;48.202;11.326;2023-01-30T05:10:38;1025.90;;;-3.53;28.15
46886;BME280;32622;48.202;11.326;2023-01-30T05:12:41;1025.54;;;-2.63;27.79
46886;BME280;32622;48.202;11.326;2023-01-30T05:14:44;1025.71;;;-3.02;27.87
46886;BME280;32622;48.202;11.326;2023-01-30T05:16:47;1025.70;;;-2.96;27.50
46886;BME280;32622;48.202;11.326;2023-01-30T05:18:51;1025.81;;;-3.38;28.38
46886;BME280;32622;48.202;11.326;2023-01-30T05:20:54;1025.58;;;-2.87;28.12
46886;BME280;32622;48.202;11.326;2023-01-30T05:23:04;1025.73;;;-2.78;27.74
46886;BME280;32622;48.202;11.326;2023-01-30T05:25:08;1026.12;;;-4.07;27.90
46886;BME280;32622;48.202;11.326;2023-01-30T05:27:11;1026.23;;;-4.59;29.01
46886;BME280;32622;48.202;11.326;2023-01-30T05:29:14;1026.20;;;-4.35;29.23
46886;BME280;32622;48.202;11.326;2023-01-30T05:31:17;1026.30;;;-4.36;29.54
46886;BME280;32622;48.202;11.326;2023-01-30T05:33:21;1026.29;;;-4.34;29.49
46886;BME280;32622;48.202;11.326;2023-01-30T05:35:24;1026.36;;;-4.68;29.38
46886;BME280;32622;48.202;11.326;2023-01-30T05:37:27;1026.09;;;-3.59;28.96
46886;BME280;32622;48.202;11.326;2023-01-30T05:39:30;1026.13;;;-4.01;29.01
46886;BME280;32622;48.202;11.326;2023-01-30T05:41:34;1026.02;;;-3.92;29.10
46886;BME280;32622;48.202;11.326;2023-01-30T05:43:37;1026.05;;;-3.77;28.65
46886;BME280;32622;48.202;11.326;2023-01-30T05:45:40;1026.11;;;-4.18;28.87
46886;BME280;32622;48.202;11.326;2023-01-30T05:47:43;1025.91;;;-3.39;28.26
46886;BME280;32622;48.202;11.326;2023-01-30T05:49:47;1025.85;;;-3.28;27.83
46886;BME280;32622;48.202;11.326;2023-01-30T05:51:55;1025.62;;;-2.57;27.52
46886;BME280;32622;48.202;11.326;2023-01-30T05:53:58;1025.50;;;-2.67;27.02
46886;BME280;32622;48.202;11.326;2023-01-30T05:56:04;1025.74;;;-3.63;28.24
46886;BME280;32622;48.202;11.326;2023-01-30T05:58:07;1025.71;;;-3.42;27.67
46886;BME280;32622;48.202;11.326;2023-01-30T06:00:11;1025.92;;;-3.78;27.67
46886;BME280;32622;48.202;11.326;2023-01-30T06:02:15;1025.74;;;-3.04;27.67
46886;BME280;32622;48.202;11.326;2023-01-30T06:04:18;1025.53;;;-2.66;27.02
46886;BME280;32622;48.202;11.326;2023-01-30T06:06:22;1025.45;;;-2.75;26.94
46886;BME280;32622;48.202;11.326;2023-01-30T06:08:25;1025.37;;;-2.38;26.78
46886;BME280;32622;48.202;11.326;2023-01-30T06:10:28;1025.39;;;-2.54;26.90
46886;BME280;32622;48.202;11.326;2023-01-30T06:12:31;1025.30;;;-2.61;26.75
46886;BME280;32622;48.202;11.326;2023-01-30T06:14:34;1025.34;;;-3.05;27.03
46886;BME280;32622;48.202;11.326;2023-01-30T06:16:37;1025.54;;;-3.15;27.14
46886;BME280;32622;48.202;11.326;2023-01-30T06:18:41;1025.55;;;-2.74;27.20
46886;BME280;32622;48.202;11.326;2023-01-30T06:20:46;1025.77;;;-3.18;27.38
46886;BME280;32622;48.202;11.326;2023-01-30T06:22:49;1025.55;;;-2.52;26.63
46886;BME280;32622;48.202;11.326;2023-01-30T06:24:52;1025.75;;;-3.44;26.84
46886;BME280;32622;48.202;11.326;2023-01-30T06:26:54;1026.29;;;-5.43;28.91
46886;BME280;32622;48.202;11.326;2023-01-30T06:28:56;1025.80;;;-3.93;28.19
46886;BME280;32622;48.202;11.326;2023-01-30T06:30:59;1025.89;;;-4.22;28.44
46886;BME280;32622;48.202;11.326;2023-01-30T06:33:04;1025.82;;;-4.03;27.71
46886;BME280;32622;48.202;11.326;2023-01-30T06:35:08;1026.03;;;-4.28;27.91
46886;BME280;32622;48.202;11.326;2023-01-30T06:37:10;1025.72;;;-3.07;27.10
46886;BME280;32622;48.202;11.326;2023-01-30T06:39:13;1025.94;;;-3.84;27.31
46886;BME280;32622;48.202;11.326;2023-01-30T06:41:16;1025.68;;;-3.05;26.57
46886;BME280;32622;48.202;11.326;2023-01-30T06:43:19;1025.66;;;-3.14;26.74
46886;BME280;32622;48.202;11.326;2023-01-30T06:45:22;1025.91;;;-3.90;27.33
46886;BME280;32622;48.202;11.326;2023-01-30T06:47:25;1026.01;;;-3.88;27.65
46886;BME280;32622;48.202;11.326;2023-01-30T06:49:29;1026.15;;;-4.75;28.78
46886;BME280;32622;48.202;11.326;2023-01-30T06:51:32;1026.28;;;-5.41;30.10
46886;BME280;32622;48.202;11.326;2023-01-30T06:53:35;1026.47;;;-5.65;30.41
46886;BME280;32622;48.202;11.326;2023-01-30T06:55:38;1026.21;;;-4.56;29.61
46886;BME280;32622;48.202;11.326;2023-01-30T06:57:41;1026.19;;;-4.46;29.57
46886;BME280;32622;48.202;11.326;2023-01-30T06:59:44;1026.17;;;-4.28;28.99
46886;BME280;32622;48.202;11.326;2023-01-30T07:01:47;1026.63;;;-5.92;30.26
46886;BME280;32622;48.202;11.326;2023-01-30T07:03:51;1026.47;;;-5.17;30.26
46886;BME280;32622;48.202;11.326;2023-01-30T07:06:18;1025.78;;;-2.30;29.65
46886;BME280;32622;48.202;11.326;2023-01-30T07:08:22;1026.24;;;-4.17;29.23
46886;BME280;32622;48.202;11.326;2023-01-30T07:10:25;1026.44;;;-5.43;30.60
46886;BME280;32622;48.202;11.326;2023-01-30T07:12:29;1026.70;;;-6.27;31.86
46886;BME280;32622;48.202;11.326;2023-01-30T07:14:32;1026.49;;;-5.44;31.01
46886;BME280;32622;48.202;11.326;2023-01-30T07:16:35;1026.64;;;-6.03;31.76
46886;BME280;32622;48.202;11.326;2023-01-30T07:18:39;1026.72;;;-6.52;32.53
46886;BME280;32622;48.202;11.326;2023-01-30T07:20:46;1026.72;;;-6.59;32.89
46886;BME280;32622;48.202;11.326;2023-01-30T07:22:50;1026.49;;;-5.65;31.79
46886;BME280;32622;48.202;11.326;2023-01-30T07:24:53;1026.72;;;-6.56;32.72
46886;BME280;32622;48.202;11.326;2023-01-30T07:26:56;1026.94;;;-7.54;33.93
46886;BME280;32622;48.202;11.326;2023-01-30T07:28:58;1026.69;;;-6.40;33.13
46886;BME280;32622;48.202;11.326;2023-01-30T07:31:01;1027.00;;;-7.51;33.76
46886;BME280;32622;48.202;11.326;2023-01-30T07:33:05;1026.60;;;-5.88;32.01
46886;BME280;32622;48.202;11.326;2023-01-30T07:35:08;1026.43;;;-5.69;31.63
46886;BME280;32622;48.202;11.326;2023-01-30T07:37:10;1026.72;;;-6.80;32.98
46886;BME280;32622;48.202;11.326;2023-01-30T07:39:13;1026.96;;;-8.13;34.87
46886;BME280;32622;48.202;11.326;2023-01-30T07:41:15;1026.64;;;-6.86;34.74
46886;BME280;32622;48.202;11.326;2023-01-30T07:43:18;1026.98;;;-8.17;35.29
46886;BME280;32622;48.202;11.326;2023-01-30T07:45:20;1027.14;;;-8.83;36.60
46886;BME280;32622;48.202;11.326;2023-01-30T07:47:23;1026.93;;;-8.11;35.39
46886;BME280;32622;48.202;11.326;2023-01-30T07:49:26;1026.89;;;-7.94;35.09
46886;BME280;32622;48.202;11.326;2023-01-30T07:51:29;1026.74;;;-7.43;34.47
46886;BME280;32622;48.202;11.326;2023-01-30T07:53:32;1026.57;;;-6.89;34.03
46886;BME280;32622;48.202;11.326;2023-01-30T07:55:35;1026.85;;;-7.83;34.81
46886;BME280;32622;48.202;11.326;2023-01-30T07:57:39;1026.54;;;-6.83;34.28
46886;BME280;32622;48.202;11.326;2023-01-30T07:59:42;1026.64;;;-7.50;34.32
46886;BME280;32622;48.202;11.326;2023-01-30T08:01:45;1026.49;;;-6.77;33.87
46886;BME280;32622;48.202;11.326;2023-01-30T08:03:48;1026.64;;;-7.00;33.41
46886;BME280;32622;48.202;11.326;2023-01-30T08:05:51;1026.71;;;-7.13;33.89
46886;BME280;32622;48.202;11.326;2023-01-30T08:07:55;1026.52;;;-6.82;32.87
46886;BME280;32622;48.202;11.326;2023-01-30T08:09:58;1026.57;;;-7.10;33.91
46886;BME280;32622;48.202;11.326;2023-01-30T08:12:02;1026.47;;;-6.68;32.62
46886;BME280;32622;48.202;11.326;2023-01-30T08:14:05;1026.79;;;-7.97;34.62
46886;BME280;32622;48.202;11.326;2023-01-30T08:16:09;1026.74;;;-7.76;34.59
46886;BME280;32622;48.202;11.326;2023-01-30T08:18:12;1026.31;;;-6.60;33.18
46886;BME280;32622;48.202;11.326;2023-01-30T08:20:14;1026.16;;;-6.22;31.85
46886;BME280;32622;48.202;11.326;2023-01-30T08:22:17;1026.09;;;-5.83;31.67
46886;BME280;32622;48.202;11.326;2023-01-30T08:24:19;1026.07;;;-5.94;31.79
46886;BME280;32622;48.202;11.326;2023-01-30T08:26:23;1026.08;;;-6.48;31.46
46886;BME280;32622;48.202;11.326;2023-01-30T08:28:26;1025.94;;;-5.80;31.51
46886;BME280;32622;48.202;11.326;2023-01-30T08:30:30;1026.03;;;-6.12;31.32
46886;BME280;32622;48.202;11.326;2023-01-30T08:32:33;1025.82;;;-5.34;30.94
46886;BME280;32622;48.202;11.326;2023-01-30T08:34:36;1025.89;;;-6.04;31.88
46886;BME280;32622;48.202;11.326;2023-01-30T08:36:39;1025.88;;;-6.07;32.29
46886;BME280;32622;48.202;11.326;2023-01-30T08:38:42;1025.98;;;-6.68;32.71
46886;BME280;32622;48.202;11.326;2023-01-30T08:40:46;1026.02;;;-6.47;32.88
46886;BME280;32622;48.202;11.326;2023-01-30T08:42:49;1025.85;;;-5.92;31.84
46886;BME280;32622;48.202;11.326;2023-01-30T08:44:52;1026.15;;;-6.93;32.80
46886;BME280;32622;48.202;11.326;2023-01-30T08:46:55;1025.89;;;-6.01;32.52
46886;BME280;32622;48.202;11.326;2023-01-30T08:48:58;1025.72;;;-5.78;32.15
46886;BME280;32622;48.202;11.326;2023-01-30T08:51:02;1025.79;;;-6.08;32.56
46886;BME280;32622;48.202;11.326;2023-01-30T08:53:06;1025.54;;;-5.43;31.69
46886;BME280;32622;48.202;11.326;2023-01-30T08:55:10;1025.50;;;-5.03;30.94
46886;BME280;32622;48.202;11.326;2023-01-30T08:57:13;1025.64;;;-5.66;32.02
46886;BME280;32622;48.202;11.326;2023-01-30T08:59:17;1025.74;;;-6.26;32.57
46886;BME280;32622;48.202;11.326;2023-01-30T09:01:20;1025.44;;;-5.75;31.48
46886;BME280;32622;48.202;11.326;2023-01-30T09:03:23;1025.79;;;-6.89;32.67
46886;BME280;32622;48.202;11.326;2023-01-30T09:05:26;1025.49;;;-5.48;31.96
46886;BME280;32622;48.202;11.326;2023-01-30T09:07:30;1025.34;;;-4.70;30.28
46886;BME280;32622;48.202;11.326;2023-01-30T09:09:34;1025.47;;;-5.03;30.53
46886;BME280;32622;48.202;11.326;2023-01-30T09:11:37;1025.55;;;-6.09;31.50
46886;BME280;32622;48.202;11.326;2023-01-30T09:13:40;1025.37;;;-5.29;31.52
46886;BME280;32622;48.202;11.326;2023-01-30T09:15:43;1025.40;;;-4.78;30.54
46886;BME280;32622;48.202;11.326;2023-01-30T09:17:47;1025.45;;;-5.21;31.14
46886;BME280;32622;48.202;11.326;2023-01-30T09:19:50;1025.44;;;-5.26;30.89
46886;BME280;32622;48.202;11.326;2023-01-30T09:21:54;1025.20;;;-4.75;29.62
46886;BME280;32622;48.202;11.326;2023-01-30T09:23:58;1025.23;;;-4.36;29.41
46886;BME280;32622;48.202;11.326;2023-01-30T09:26:01;1025.07;;;-3.56;28.68
46886;BME280;32622;48.202;11.326;2023-01-30T09:28:05;1025.11;;;-3.85;28.10
46886;BME280;32622;48.202;11.326;2023-01-30T09:30:09;1024.94;;;-2.96;27.22
46886;BME280;32622;48.202;11.326;2023-01-30T09:32:12;1024.80;;;-2.34;26.89
46886;BME280;32622;48.202;11.326;2023-01-30T09:34:14;1025.04;;;-3.29;26.89
46886;BME280;32622;48.202;11.326;2023-01-30T09:36:17;1024.73;;;-2.44;25.96
46886;BME280;32622;48.202;11.326;2023-01-30T09:38:19;1024.73;;;-2.42;25.99
46886;BME280;32622;48.202;11.326;2023-01-30T09:40:25;1024.78;;;-2.45;25.89
46886;BME280;32622;48.202;11.326;2023-01-30T09:42:39;1024.80;;;-2.51;25.69
46886;BME280;32622;48.202;11.326;2023-01-30T09:45:01;1024.67;;;-2.40;25.61
46886;BME280;32622;48.202;11.326;2023-01-30T09:47:10;1024.48;;;-2.20;25.90
46886;BME280;32622;48.202;11.326;2023-01-30T09:49:23;1024.28;;;-1.67;25.49
46886;BME280;32622;48.202;11.326;2023-01-30T09:51:42;1024.44;;;-2.54;25.78
46886;BME280;32622;48.202;11.326;2023-01-30T09:53:56;1024.34;;;-2.28;26.31
46886;BME280;32622;48.202;11.326;2023-01-30T09:56:03;1024.34;;;-2.00;26.25
46886;BME280;32622;48.202;11.326;2023-01-30T09:58:12;1024.52;;;-2.80;26.76
46886;BME280;32622;48.202;11.326;2023-01-30T10:00:24;1024.37;;;-2.59;27.07
46886;BME280;32622;48.202;11.326;2023-01-30T10:02:38;1024.45;;;-3.29;28.31
46886;BME280;32622;48.202;11.326;2023-01-30T10:04:44;1024.32;;;-2.64;28.03
46886;BME280;32622;48.202;11.326;2023-01-30T10:06:55;1024.34;;;-2.12;27.94
46886;BME280;32622;48.202;11.326;2023-01-30T10:09:03;1024.78;;;-3.94;30.46
46886;BME280;32622;48.202;11.326;2023-01-30T10:11:21;1024.62;;;-3.49;30.16
46886;BME280;32622;48.202;11.326;2023-01-30T10:13:36;1024.40;;;-3.27;29.42
46886;BME280;32622;48.202;11.326;2023-01-30T10:15:49;1024.33;;;-2.95;29.37
46886;BME280;32622;48.202;11.326;2023-01-30T10:18:13;1024.37;;;-3.76;30.24
46886;BME280;32622;48.202;11.326;2023-01-30T10:22:56;1024.23;;;-3.69;30.81
46886;BME280;32622;48.202;11.326;2023-01-30T10:25:13;1024.25;;;-4.01;31.22
46886;BME280;32622;48.202;11.326;2023-01-30T10:27:17;1024.33;;;-4.39;31.21
46886;BME280;32622;48.202;11.326;2023-01-30T10:29:23;1023.99;;;-3.87;31.28
46886;BME280;32622;48.202;11.326;2023-01-30T10:31:31;1024.21;;;-4.80;32.36
46886;BME280;32622;48.202;11.326;2023-01-30T10:33:50;1024.20;;;-5.15;32.95
46886;BME280;32622;48.202;11.326;2023-01-30T10:36:10;1024.25;;;-5.44;34.13
46886;BME280;32622;48.202;11.326;2023-01-30T10:38:18;1024.24;;;-5.48;33.57
46886;BME280;32622;48.202;11.326;2023-01-30T10:40:27;1024.08;;;-4.71;32.66
46886;BME280;32622;48.202;11.326;2023-01-30T10:42:35;1024.11;;;-4.02;32.65
46886;BME280;32622;48.202;11.326;2023-01-30T10:44:40;1024.30;;;-4.75;32.78
46886;BME280;32622;48.202;11.326;2023-01-30T10:46:55;1024.31;;;-4.55;32.86
46886;BME280;32622;48.202;11.326;2023-01-30T10:49:05;1024.23;;;-4.76;33.58
46886;BME280;32622;48.202;11.326;2023-01-30T10:51:20;1024.05;;;-4.43;33.27
46886;BME280;32622;48.202;11.326;2023-01-30T10:53:33;1023.95;;;-4.22;32.76
46886;BME280;32622;48.202;11.326;2023-01-30T10:55:42;1023.88;;;-3.82;32.34
46886;BME280;32622;48.202;11.326;2023-01-30T10:57:53;1024.12;;;-4.29;32.37
46886;BME280;32622;48.202;11.326;2023-01-30T11:00:01;1024.17;;;-4.43;33.45
46886;BME280;32622;48.202;11.326;2023-01-30T11:02:15;1023.89;;;-3.74;32.12
46886;BME280;32622;48.202;11.326;2023-01-30T11:18:03;1023.43;;;-2.95;36.77
46886;BME280;32622;48.202;11.326;2023-01-30T12:25:07;1022.73;;;-3.85;39.01
46886;BME280;32622;48.202;11.326;2023-01-30T12:29:34;1022.18;;;-2.38;36.98
46886;BME280;32622;48.202;11.326;2023-01-30T12:45:02;1021.85;;;-2.47;38.79
46886;BME280;32622;48.202;11.326;2023-01-30T12:59:59;1021.94;;;-2.27;38.60